sensor_id;sensor_type;location;lat;lon;timestamp;P1;durP1;ratioP1;P2;durP2;ratioP2
63902;SDS011;50072;50.678;13.938;2023-02-28T00:06:09;27.27;;;8.70;;
63902;SDS011;50072;50.678;13.938;2023-02-28T00:08:35;24.45;;;7.63;;
63902;SDS011;50072;50.678;13.938;2023-02-28T00:11:05;19.63;;;6.95;;
63902;SDS011;50072;50.678;13.938;2023-02-28T00:13:35;9.68;;;4.20;;
63902;SDS011;50072;50.678;13.938;2023-02-28T00:16:12;8.15;;;3.60;;
63902;SDS011;50072;50.678;13.938;2023-02-28T00:18:40;7.28;;;3.33;;
63902;SDS011;50072;50.678;13.938;2023-02-28T00:21:09;10.43;;;4.00;;
63902;SDS011;50072;50.678;13.938;2023-02-28T00:23:35;9.15;;;4.20;;
63902;SDS011;50072;50.678;13.938;2023-02-28T00:26:07;8.57;;;3.30;;
63902;SDS011;50072;50.678;13.938;2023-02-28T00:28:34;9.77;;;3.75;;
63902;SDS011;50072;50.678;13.938;2023-02-28T00:31:05;10.77;;;3.95;;
63902;SDS011;50072;50.678;13.938;2023-02-28T00:33:36;15.48;;;5.97;;
63902;SDS011;50072;50.678;13.938;2023-02-28T00:36:05;11.30;;;4.32;;
63902;SDS011;50072;50.678;13.938;2023-02-28T00:38:34;9.00;;;3.88;;
63902;SDS011;50072;50.678;13.938;2023-02-28T00:43:35;10.70;;;4.25;;
63902;SDS011;50072;50.678;13.938;2023-02-28T00:46:04;10.70;;;4.35;;
63902;SDS011;50072;50.678;13.938;2023-02-28T00:48:36;11.50;;;4.50;;
63902;SDS011;50072;50.678;13.938;2023-02-28T00:51:04;11.70;;;5.30;;
63902;SDS011;50072;50.678;13.938;2023-02-28T00:56:01;14.60;;;6.57;;
63902;SDS011;50072;50.678;13.938;2023-02-28T00:58:35;14.02;;;6.10;;
63902;SDS011;50072;50.678;13.938;2023-02-28T01:01:04;11.10;;;5.00;;
63902;SDS011;50072;50.678;13.938;2023-02-28T01:03:34;11.93;;;5.18;;
63902;SDS011;50072;50.678;13.938;2023-02-28T01:11:12;12.00;;;4.95;;
63902;SDS011;50072;50.678;13.938;2023-02-28T01:16:34;10.10;;;4.82;;
63902;SDS011;50072;50.678;13.938;2023-02-28T01:19:04;11.52;;;5.05;;
63902;SDS011;50072;50.678;13.938;2023-02-28T01:21:34;12.27;;;5.20;;
63902;SDS011;50072;50.678;13.938;2023-02-28T01:26:34;10.20;;;5.07;;
63902;SDS011;50072;50.678;13.938;2023-02-28T01:29:06;14.88;;;5.40;;
63902;SDS011;50072;50.678;13.938;2023-02-28T01:31:34;13.20;;;5.90;;
63902;SDS011;50072;50.678;13.938;2023-02-28T01:36:36;12.15;;;5.38;;
63902;SDS011;50072;50.678;13.938;2023-02-28T01:39:04;10.77;;;5.30;;
63902;SDS011;50072;50.678;13.938;2023-02-28T01:41:36;10.73;;;5.25;;
63902;SDS011;50072;50.678;13.938;2023-02-28T01:44:05;13.25;;;5.55;;
63902;SDS011;50072;50.678;13.938;2023-02-28T01:47:00;9.85;;;5.05;;
63902;SDS011;50072;50.678;13.938;2023-02-28T01:49:28;9.13;;;4.78;;
63902;SDS011;50072;50.678;13.938;2023-02-28T01:52:05;14.77;;;5.68;;
63902;SDS011;50072;50.678;13.938;2023-02-28T01:54:36;11.88;;;5.43;;
63902;SDS011;50072;50.678;13.938;2023-02-28T01:57:06;10.65;;;5.03;;
63902;SDS011;50072;50.678;13.938;2023-02-28T01:59:37;11.70;;;5.00;;
63902;SDS011;50072;50.678;13.938;2023-02-28T02:05:04;11.20;;;4.97;;
63902;SDS011;50072;50.678;13.938;2023-02-28T02:07:35;12.40;;;4.82;;
63902;SDS011;50072;50.678;13.938;2023-02-28T02:10:29;11.85;;;5.15;;
63902;SDS011;50072;50.678;13.938;2023-02-28T02:45:38;15.75;;;5.53;;
63902;SDS011;50072;50.678;13.938;2023-02-28T02:56:34;16.75;;;6.85;;
63902;SDS011;50072;50.678;13.938;2023-02-28T02:59:07;12.90;;;6.60;;
63902;SDS011;50072;50.678;13.938;2023-02-28T03:01:39;13.68;;;6.30;;
63902;SDS011;50072;50.678;13.938;2023-02-28T03:04:13;13.80;;;5.68;;
63902;SDS011;50072;50.678;13.938;2023-02-28T03:06:51;12.50;;;5.78;;
63902;SDS011;50072;50.678;13.938;2023-02-28T03:09:27;12.63;;;6.13;;
63902;SDS011;50072;50.678;13.938;2023-02-28T03:12:06;14.40;;;6.07;;
63902;SDS011;50072;50.678;13.938;2023-02-28T03:14:41;11.38;;;5.38;;
63902;SDS011;50072;50.678;13.938;2023-02-28T03:26:26;15.35;;;5.78;;
63902;SDS011;50072;50.678;13.938;2023-02-28T03:29:05;14.98;;;6.18;;
63902;SDS011;50072;50.678;13.938;2023-02-28T03:32:02;16.73;;;6.40;;
63902;SDS011;50072;50.678;13.938;2023-02-28T03:37:35;24.88;;;7.30;;
63902;SDS011;50072;50.678;13.938;2023-02-28T03:40:06;17.65;;;7.90;;
63902;SDS011;50072;50.678;13.938;2023-02-28T03:42:41;26.30;;;8.95;;
63902;SDS011;50072;50.678;13.938;2023-02-28T03:45:18;22.75;;;9.77;;
63902;SDS011;50072;50.678;13.938;2023-02-28T03:56:51;21.13;;;7.65;;
63902;SDS011;50072;50.678;13.938;2023-02-28T03:59:28;18.58;;;7.32;;
63902;SDS011;50072;50.678;13.938;2023-02-28T04:02:31;26.98;;;10.55;;
63902;SDS011;50072;50.678;13.938;2023-02-28T04:05:05;26.60;;;10.32;;
63902;SDS011;50072;50.678;13.938;2023-02-28T04:07:35;40.85;;;12.90;;
63902;SDS011;50072;50.678;13.938;2023-02-28T04:10:06;31.75;;;11.15;;
63902;SDS011;50072;50.678;13.938;2023-02-28T04:12:34;30.98;;;11.43;;
63902;SDS011;50072;50.678;13.938;2023-02-28T04:15:04;26.58;;;9.10;;
63902;SDS011;50072;50.678;13.938;2023-02-28T04:17:34;22.90;;;8.57;;
63902;SDS011;50072;50.678;13.938;2023-02-28T04:20:01;24.27;;;9.13;;
63902;SDS011;50072;50.678;13.938;2023-02-28T04:22:35;20.35;;;8.32;;
63902;SDS011;50072;50.678;13.938;2023-02-28T04:25:04;19.17;;;7.85;;
63902;SDS011;50072;50.678;13.938;2023-02-28T04:27:35;17.08;;;8.05;;
63902;SDS011;50072;50.678;13.938;2023-02-28T04:30:04;16.02;;;6.68;;
63902;SDS011;50072;50.678;13.938;2023-02-28T04:35:04;22.02;;;8.63;;
63902;SDS011;50072;50.678;13.938;2023-02-28T04:40:04;17.70;;;7.65;;
63902;SDS011;50072;50.678;13.938;2023-02-28T04:42:36;19.33;;;8.00;;
63902;SDS011;50072;50.678;13.938;2023-02-28T04:45:04;13.95;;;5.65;;
63902;SDS011;50072;50.678;13.938;2023-02-28T04:47:36;21.42;;;8.80;;
63902;SDS011;50072;50.678;13.938;2023-02-28T04:50:05;21.15;;;8.38;;
63902;SDS011;50072;50.678;13.938;2023-02-28T04:52:34;20.42;;;8.07;;
63902;SDS011;50072;50.678;13.938;2023-02-28T04:55:00;18.58;;;7.55;;
63902;SDS011;50072;50.678;13.938;2023-02-28T04:57:34;34.42;;;10.15;;
63902;SDS011;50072;50.678;13.938;2023-02-28T05:00:02;30.02;;;9.85;;
63902;SDS011;50072;50.678;13.938;2023-02-28T05:02:34;27.25;;;9.00;;
63902;SDS011;50072;50.678;13.938;2023-02-28T05:05:01;24.98;;;9.55;;
63902;SDS011;50072;50.678;13.938;2023-02-28T05:07:28;25.00;;;8.43;;
63902;SDS011;50072;50.678;13.938;2023-02-28T05:09:55;25.00;;;8.80;;
63902;SDS011;50072;50.678;13.938;2023-02-28T05:12:22;23.25;;;8.80;;
63902;SDS011;50072;50.678;13.938;2023-02-28T05:14:48;19.90;;;8.10;;
63902;SDS011;50072;50.678;13.938;2023-02-28T05:17:30;21.73;;;8.57;;
63902;SDS011;50072;50.678;13.938;2023-02-28T05:20:05;28.00;;;8.93;;
63902;SDS011;50072;50.678;13.938;2023-02-28T05:25:00;23.35;;;9.20;;
63902;SDS011;50072;50.678;13.938;2023-02-28T05:27:26;28.73;;;9.70;;
63902;SDS011;50072;50.678;13.938;2023-02-28T05:29:55;24.38;;;9.10;;
63902;SDS011;50072;50.678;13.938;2023-02-28T05:32:22;20.20;;;8.25;;
63902;SDS011;50072;50.678;13.938;2023-02-28T05:34:49;21.20;;;8.13;;
63902;SDS011;50072;50.678;13.938;2023-02-28T05:37:15;25.90;;;9.63;;
63902;SDS011;50072;50.678;13.938;2023-02-28T05:39:44;27.10;;;8.88;;
63902;SDS011;50072;50.678;13.938;2023-02-28T05:42:11;33.67;;;11.50;;
63902;SDS011;50072;50.678;13.938;2023-02-28T05:44:37;27.38;;;9.95;;
63902;SDS011;50072;50.678;13.938;2023-02-28T05:47:03;26.38;;;10.15;;
63902;SDS011;50072;50.678;13.938;2023-02-28T05:49:30;24.83;;;10.55;;
63902;SDS011;50072;50.678;13.938;2023-02-28T05:51:56;25.90;;;9.02;;
63902;SDS011;50072;50.678;13.938;2023-02-28T05:54:24;24.33;;;9.85;;
63902;SDS011;50072;50.678;13.938;2023-02-28T05:56:51;30.08;;;10.80;;
63902;SDS011;50072;50.678;13.938;2023-02-28T05:59:18;40.13;;;12.60;;
63902;SDS011;50072;50.678;13.938;2023-02-28T06:01:46;37.22;;;11.45;;
63902;SDS011;50072;50.678;13.938;2023-02-28T06:04:18;33.63;;;11.70;;
63902;SDS011;50072;50.678;13.938;2023-02-28T06:06:45;36.88;;;11.73;;
63902;SDS011;50072;50.678;13.938;2023-02-28T06:09:12;39.75;;;12.88;;
63902;SDS011;50072;50.678;13.938;2023-02-28T06:11:38;47.72;;;14.50;;
63902;SDS011;50072;50.678;13.938;2023-02-28T06:14:06;43.88;;;14.18;;
63902;SDS011;50072;50.678;13.938;2023-02-28T06:16:34;39.50;;;13.52;;
63902;SDS011;50072;50.678;13.938;2023-02-28T06:19:01;41.60;;;13.95;;
63902;SDS011;50072;50.678;13.938;2023-02-28T06:21:30;36.63;;;13.25;;
63902;SDS011;50072;50.678;13.938;2023-02-28T06:23:56;30.27;;;10.65;;
63902;SDS011;50072;50.678;13.938;2023-02-28T06:26:24;30.75;;;11.10;;
63902;SDS011;50072;50.678;13.938;2023-02-28T06:28:51;32.67;;;11.55;;
63902;SDS011;50072;50.678;13.938;2023-02-28T06:31:18;31.65;;;12.15;;
63902;SDS011;50072;50.678;13.938;2023-02-28T06:33:46;47.08;;;16.30;;
63902;SDS011;50072;50.678;13.938;2023-02-28T06:36:13;54.50;;;17.42;;
63902;SDS011;50072;50.678;13.938;2023-02-28T06:38:41;52.67;;;16.48;;
63902;SDS011;50072;50.678;13.938;2023-02-28T06:41:08;56.50;;;18.08;;
63902;SDS011;50072;50.678;13.938;2023-02-28T06:43:37;58.70;;;17.63;;
63902;SDS011;50072;50.678;13.938;2023-02-28T06:46:05;59.33;;;18.05;;
63902;SDS011;50072;50.678;13.938;2023-02-28T06:48:34;45.50;;;15.82;;
63902;SDS011;50072;50.678;13.938;2023-02-28T06:51:01;45.85;;;16.25;;
63902;SDS011;50072;50.678;13.938;2023-02-28T06:53:29;38.40;;;13.82;;
63902;SDS011;50072;50.678;13.938;2023-02-28T06:55:56;45.17;;;15.27;;
63902;SDS011;50072;50.678;13.938;2023-02-28T06:58:23;38.00;;;13.32;;
63902;SDS011;50072;50.678;13.938;2023-02-28T07:00:50;44.85;;;14.25;;
63902;SDS011;50072;50.678;13.938;2023-02-28T07:03:19;40.75;;;12.90;;
63902;SDS011;50072;50.678;13.938;2023-02-28T07:05:46;38.80;;;14.25;;
63902;SDS011;50072;50.678;13.938;2023-02-28T07:11:05;44.53;;;13.95;;
63902;SDS011;50072;50.678;13.938;2023-02-28T07:13:37;40.33;;;13.60;;
63902;SDS011;50072;50.678;13.938;2023-02-28T07:16:05;23.55;;;9.73;;
63902;SDS011;50072;50.678;13.938;2023-02-28T07:18:35;16.95;;;7.63;;
63902;SDS011;50072;50.678;13.938;2023-02-28T07:21:07;15.50;;;7.18;;
63902;SDS011;50072;50.678;13.938;2023-02-28T07:23:35;18.52;;;7.88;;
63902;SDS011;50072;50.678;13.938;2023-02-28T07:28:37;16.83;;;7.45;;
63902;SDS011;50072;50.678;13.938;2023-02-28T07:31:06;16.75;;;7.82;;
63902;SDS011;50072;50.678;13.938;2023-02-28T07:33:34;20.20;;;8.32;;
63902;SDS011;50072;50.678;13.938;2023-02-28T07:36:03;20.55;;;8.32;;
63902;SDS011;50072;50.678;13.938;2023-02-28T07:41:04;19.17;;;9.00;;
63902;SDS011;50072;50.678;13.938;2023-02-28T07:43:35;16.10;;;7.65;;
63902;SDS011;50072;50.678;13.938;2023-02-28T07:46:08;19.05;;;8.05;;
63902;SDS011;50072;50.678;13.938;2023-02-28T07:48:42;16.65;;;6.30;;
63902;SDS011;50072;50.678;13.938;2023-02-28T07:51:09;18.10;;;7.07;;
63902;SDS011;50072;50.678;13.938;2023-02-28T07:53:37;16.20;;;6.40;;
63902;SDS011;50072;50.678;13.938;2023-02-28T07:56:02;12.38;;;7.10;;
63902;SDS011;50072;50.678;13.938;2023-02-28T07:58:34;14.85;;;6.22;;
63902;SDS011;50072;50.678;13.938;2023-02-28T08:01:10;14.85;;;6.72;;
63902;SDS011;50072;50.678;13.938;2023-02-28T08:03:45;12.10;;;6.10;;
63902;SDS011;50072;50.678;13.938;2023-02-28T08:06:16;15.55;;;7.10;;
63902;SDS011;50072;50.678;13.938;2023-02-28T08:09:04;13.05;;;6.55;;
63902;SDS011;50072;50.678;13.938;2023-02-28T08:19:06;17.95;;;8.57;;
63902;SDS011;50072;50.678;13.938;2023-02-28T08:21:34;15.82;;;7.10;;
63902;SDS011;50072;50.678;13.938;2023-02-28T08:26:34;21.63;;;9.07;;
63902;SDS011;50072;50.678;13.938;2023-02-28T08:29:06;28.95;;;12.05;;
63902;SDS011;50072;50.678;13.938;2023-02-28T08:31:34;24.65;;;8.38;;
63902;SDS011;50072;50.678;13.938;2023-02-28T08:34:09;17.00;;;7.47;;
63902;SDS011;50072;50.678;13.938;2023-02-28T08:36:38;20.42;;;7.20;;
63902;SDS011;50072;50.678;13.938;2023-02-28T08:39:05;15.80;;;7.43;;
63902;SDS011;50072;50.678;13.938;2023-02-28T08:41:33;13.52;;;6.53;;
63902;SDS011;50072;50.678;13.938;2023-02-28T08:44:04;13.15;;;5.55;;
63902;SDS011;50072;50.678;13.938;2023-02-28T08:46:31;10.80;;;5.20;;
63902;SDS011;50072;50.678;13.938;2023-02-28T08:48:58;12.43;;;5.38;;
63902;SDS011;50072;50.678;13.938;2023-02-28T08:51:35;10.95;;;4.85;;
63902;SDS011;50072;50.678;13.938;2023-02-28T08:56:34;11.13;;;5.63;;
63902;SDS011;50072;50.678;13.938;2023-02-28T08:59:04;12.02;;;5.70;;
63902;SDS011;50072;50.678;13.938;2023-02-28T09:01:36;11.32;;;5.50;;
63902;SDS011;50072;50.678;13.938;2023-02-28T09:04:07;11.65;;;5.63;;
63902;SDS011;50072;50.678;13.938;2023-02-28T09:06:34;10.02;;;5.00;;
63902;SDS011;50072;50.678;13.938;2023-02-28T09:09:06;14.15;;;6.65;;
63902;SDS011;50072;50.678;13.938;2023-02-28T09:11:34;11.50;;;5.55;;
63902;SDS011;50072;50.678;13.938;2023-02-28T09:16:36;8.65;;;5.13;;
63902;SDS011;50072;50.678;13.938;2023-02-28T09:19:04;11.00;;;5.28;;
63902;SDS011;50072;50.678;13.938;2023-02-28T09:21:35;15.93;;;7.75;;
63902;SDS011;50072;50.678;13.938;2023-02-28T09:24:04;10.77;;;4.83;;
63902;SDS011;50072;50.678;13.938;2023-02-28T09:26:34;11.45;;;4.80;;
63902;SDS011;50072;50.678;13.938;2023-02-28T09:29:06;8.90;;;4.82;;
63902;SDS011;50072;50.678;13.938;2023-02-28T09:31:35;12.60;;;5.90;;
63902;SDS011;50072;50.678;13.938;2023-02-28T09:34:04;11.52;;;5.15;;
63902;SDS011;50072;50.678;13.938;2023-02-28T09:36:35;9.85;;;5.00;;
63902;SDS011;50072;50.678;13.938;2023-02-28T09:41:43;11.23;;;5.25;;
63902;SDS011;50072;50.678;13.938;2023-02-28T09:44:20;9.73;;;4.93;;
63902;SDS011;50072;50.678;13.938;2023-02-28T09:46:50;13.55;;;6.05;;
63902;SDS011;50072;50.678;13.938;2023-02-28T09:49:28;13.43;;;6.18;;
63902;SDS011;50072;50.678;13.938;2023-02-28T09:52:04;11.50;;;4.85;;
63902;SDS011;50072;50.678;13.938;2023-02-28T09:54:35;15.02;;;7.15;;
63902;SDS011;50072;50.678;13.938;2023-02-28T10:10:48;13.50;;;5.75;;
63902;SDS011;50072;50.678;13.938;2023-02-28T10:16:43;10.32;;;5.20;;
63902;SDS011;50072;50.678;13.938;2023-02-28T10:19:29;8.50;;;4.25;;
63902;SDS011;50072;50.678;13.938;2023-02-28T10:22:22;14.75;;;6.75;;
63902;SDS011;50072;50.678;13.938;2023-02-28T10:24:58;12.52;;;8.05;;
63902;SDS011;50072;50.678;13.938;2023-02-28T10:27:30;10.03;;;4.77;;
63902;SDS011;50072;50.678;13.938;2023-02-28T10:29:59;9.45;;;4.53;;
63902;SDS011;50072;50.678;13.938;2023-02-28T10:35:22;8.65;;;4.40;;
63902;SDS011;50072;50.678;13.938;2023-02-28T10:37:50;10.98;;;4.82;;
63902;SDS011;50072;50.678;13.938;2023-02-28T10:42:56;9.90;;;5.50;;
63902;SDS011;50072;50.678;13.938;2023-02-28T10:45:25;9.60;;;5.00;;
63902;SDS011;50072;50.678;13.938;2023-02-28T10:47:58;9.77;;;5.38;;
63902;SDS011;50072;50.678;13.938;2023-02-28T10:50:28;10.27;;;5.05;;
63902;SDS011;50072;50.678;13.938;2023-02-28T10:55:44;9.32;;;5.53;;
63902;SDS011;50072;50.678;13.938;2023-02-28T10:58:21;10.77;;;5.00;;
63902;SDS011;50072;50.678;13.938;2023-02-28T11:00:50;10.45;;;5.55;;
63902;SDS011;50072;50.678;13.938;2023-02-28T11:03:35;7.10;;;4.40;;
63902;SDS011;50072;50.678;13.938;2023-02-28T11:06:06;8.65;;;4.30;;
63902;SDS011;50072;50.678;13.938;2023-02-28T11:08:54;8.65;;;4.65;;
63902;SDS011;50072;50.678;13.938;2023-02-28T11:11:26;7.55;;;4.30;;
63902;SDS011;50072;50.678;13.938;2023-02-28T11:14:05;9.93;;;4.90;;
63902;SDS011;50072;50.678;13.938;2023-02-28T11:16:37;5.88;;;4.43;;
63902;SDS011;50072;50.678;13.938;2023-02-28T11:19:06;9.05;;;5.43;;
63902;SDS011;50072;50.678;13.938;2023-02-28T11:24:36;11.02;;;5.78;;
63902;SDS011;50072;50.678;13.938;2023-02-28T11:27:23;9.52;;;5.15;;
63902;SDS011;50072;50.678;13.938;2023-02-28T11:36:03;8.65;;;4.60;;
63902;SDS011;50072;50.678;13.938;2023-02-28T11:38:35;8.75;;;4.95;;
63902;SDS011;50072;50.678;13.938;2023-02-28T11:46:52;7.28;;;4.72;;
63902;SDS011;50072;50.678;13.938;2023-02-28T11:49:28;9.32;;;5.03;;
63902;SDS011;50072;50.678;13.938;2023-02-28T11:52:10;7.13;;;4.50;;
63902;SDS011;50072;50.678;13.938;2023-02-28T11:55:24;7.40;;;4.70;;
63902;SDS011;50072;50.678;13.938;2023-02-28T11:58:05;9.43;;;5.65;;
63902;SDS011;50072;50.678;13.938;2023-02-28T12:14:37;8.50;;;5.47;;
63902;SDS011;50072;50.678;13.938;2023-02-28T12:17:22;10.35;;;5.38;;
63902;SDS011;50072;50.678;13.938;2023-02-28T12:23:01;8.15;;;4.40;;
63902;SDS011;50072;50.678;13.938;2023-02-28T12:25:52;8.52;;;4.80;;
63902;SDS011;50072;50.678;13.938;2023-02-28T12:28:35;7.65;;;4.68;;
63902;SDS011;50072;50.678;13.938;2023-02-28T12:31:15;8.70;;;4.57;;
63902;SDS011;50072;50.678;13.938;2023-02-28T12:33:53;8.43;;;5.15;;
63902;SDS011;50072;50.678;13.938;2023-02-28T12:36:25;13.05;;;5.65;;
63902;SDS011;50072;50.678;13.938;2023-02-28T12:38:56;11.95;;;5.13;;
63902;SDS011;50072;50.678;13.938;2023-02-28T12:41:34;11.82;;;5.60;;
63902;SDS011;50072;50.678;13.938;2023-02-28T12:47:10;10.55;;;5.75;;
63902;SDS011;50072;50.678;13.938;2023-02-28T12:52:20;9.13;;;5.88;;
63902;SDS011;50072;50.678;13.938;2023-02-28T12:55:13;8.63;;;5.40;;
63902;SDS011;50072;50.678;13.938;2023-02-28T12:58:15;10.05;;;5.68;;
63902;SDS011;50072;50.678;13.938;2023-02-28T13:06:34;9.88;;;5.50;;
63902;SDS011;50072;50.678;13.938;2023-02-28T13:09:21;12.93;;;7.05;;
63902;SDS011;50072;50.678;13.938;2023-02-28T13:11:49;10.88;;;5.95;;
63902;SDS011;50072;50.678;13.938;2023-02-28T13:14:19;8.77;;;5.43;;
63902;SDS011;50072;50.678;13.938;2023-02-28T13:19:24;12.82;;;6.80;;
63902;SDS011;50072;50.678;13.938;2023-02-28T13:21:54;9.45;;;5.38;;
63902;SDS011;50072;50.678;13.938;2023-02-28T13:24:38;12.50;;;6.00;;
63902;SDS011;50072;50.678;13.938;2023-02-28T13:34:37;8.38;;;5.18;;
63902;SDS011;50072;50.678;13.938;2023-02-28T13:39:50;10.07;;;5.03;;
63902;SDS011;50072;50.678;13.938;2023-02-28T13:47:41;11.95;;;6.00;;
63902;SDS011;50072;50.678;13.938;2023-02-28T13:50:24;15.20;;;5.57;;
63902;SDS011;50072;50.678;13.938;2023-02-28T13:55:44;13.23;;;5.00;;
63902;SDS011;50072;50.678;13.938;2023-02-28T14:03:41;7.80;;;5.15;;
63902;SDS011;50072;50.678;13.938;2023-02-28T14:06:23;9.40;;;5.30;;
63902;SDS011;50072;50.678;13.938;2023-02-28T14:09:06;7.57;;;4.72;;
63902;SDS011;50072;50.678;13.938;2023-02-28T14:11:52;9.30;;;5.85;;
63902;SDS011;50072;50.678;13.938;2023-02-28T14:17:35;10.32;;;6.40;;
63902;SDS011;50072;50.678;13.938;2023-02-28T14:20:04;13.43;;;6.97;;
63902;SDS011;50072;50.678;13.938;2023-02-28T14:38:05;8.82;;;5.07;;
63902;SDS011;50072;50.678;13.938;2023-02-28T14:43:35;8.15;;;4.93;;
63902;SDS011;50072;50.678;13.938;2023-02-28T14:46:05;9.70;;;5.05;;
63902;SDS011;50072;50.678;13.938;2023-02-28T14:48:37;10.05;;;4.68;;
63902;SDS011;50072;50.678;13.938;2023-02-28T14:51:04;7.57;;;4.72;;
63902;SDS011;50072;50.678;13.938;2023-02-28T14:53:36;8.80;;;5.10;;
63902;SDS011;50072;50.678;13.938;2023-02-28T14:56:03;9.18;;;5.00;;
63902;SDS011;50072;50.678;13.938;2023-02-28T14:58:34;10.57;;;5.68;;
63902;SDS011;50072;50.678;13.938;2023-02-28T15:01:09;11.75;;;5.95;;
63902;SDS011;50072;50.678;13.938;2023-02-28T15:03:42;7.75;;;4.70;;
63902;SDS011;50072;50.678;13.938;2023-02-28T15:06:18;9.05;;;4.70;;
63902;SDS011;50072;50.678;13.938;2023-02-28T15:11:34;9.63;;;5.20;;
63902;SDS011;50072;50.678;13.938;2023-02-28T15:14:07;12.10;;;5.38;;
63902;SDS011;50072;50.678;13.938;2023-02-28T15:17:01;10.68;;;5.60;;
63902;SDS011;50072;50.678;13.938;2023-02-28T15:19:35;11.65;;;5.03;;
63902;SDS011;50072;50.678;13.938;2023-02-28T15:22:15;8.80;;;5.28;;
63902;SDS011;50072;50.678;13.938;2023-02-28T15:27:35;11.68;;;6.05;;
63902;SDS011;50072;50.678;13.938;2023-02-28T15:30:19;13.43;;;5.75;;
63902;SDS011;50072;50.678;13.938;2023-02-28T15:35:38;11.40;;;5.78;;
63902;SDS011;50072;50.678;13.938;2023-02-28T15:38:23;10.85;;;5.68;;
63902;SDS011;50072;50.678;13.938;2023-02-28T15:49:45;11.70;;;5.90;;
63902;SDS011;50072;50.678;13.938;2023-02-28T15:52:29;12.38;;;6.57;;
63902;SDS011;50072;50.678;13.938;2023-02-28T15:55:22;20.98;;;10.68;;
63902;SDS011;50072;50.678;13.938;2023-02-28T15:58:00;18.10;;;8.68;;
63902;SDS011;50072;50.678;13.938;2023-02-28T16:00:29;21.58;;;10.73;;
63902;SDS011;50072;50.678;13.938;2023-02-28T16:02:57;19.10;;;10.23;;
63902;SDS011;50072;50.678;13.938;2023-02-28T16:05:35;21.05;;;10.80;;
63902;SDS011;50072;50.678;13.938;2023-02-28T16:08:12;15.75;;;8.13;;
63902;SDS011;50072;50.678;13.938;2023-02-28T16:10:40;13.45;;;6.60;;
63902;SDS011;50072;50.678;13.938;2023-02-28T16:15:52;21.30;;;9.27;;
63902;SDS011;50072;50.678;13.938;2023-02-28T16:18:37;15.13;;;7.72;;
63902;SDS011;50072;50.678;13.938;2023-02-28T16:21:04;18.88;;;8.98;;
63902;SDS011;50072;50.678;13.938;2023-02-28T16:26:05;17.38;;;8.80;;
63902;SDS011;50072;50.678;13.938;2023-02-28T16:28:35;14.82;;;7.18;;
63902;SDS011;50072;50.678;13.938;2023-02-28T16:31:05;13.85;;;6.88;;
63902;SDS011;50072;50.678;13.938;2023-02-28T16:33:34;12.52;;;6.80;;
63902;SDS011;50072;50.678;13.938;2023-02-28T16:36:06;16.45;;;7.88;;
63902;SDS011;50072;50.678;13.938;2023-02-28T16:38:40;27.85;;;10.23;;
63902;SDS011;50072;50.678;13.938;2023-02-28T16:41:12;22.58;;;10.25;;
63902;SDS011;50072;50.678;13.938;2023-02-28T16:43:50;20.55;;;9.63;;
63902;SDS011;50072;50.678;13.938;2023-02-28T16:48:58;20.08;;;8.63;;
63902;SDS011;50072;50.678;13.938;2023-02-28T16:53:58;23.08;;;11.20;;
63902;SDS011;50072;50.678;13.938;2023-02-28T16:56:24;21.27;;;10.88;;
63902;SDS011;50072;50.678;13.938;2023-02-28T16:59:05;17.95;;;8.95;;
63902;SDS011;50072;50.678;13.938;2023-02-28T17:01:37;21.75;;;9.77;;
63902;SDS011;50072;50.678;13.938;2023-02-28T17:04:04;21.02;;;9.98;;
63902;SDS011;50072;50.678;13.938;2023-02-28T17:06:35;22.30;;;9.90;;
63902;SDS011;50072;50.678;13.938;2023-02-28T17:09:04;19.25;;;10.23;;
63902;SDS011;50072;50.678;13.938;2023-02-28T17:11:31;20.30;;;9.95;;
63902;SDS011;50072;50.678;13.938;2023-02-28T17:14:05;23.33;;;10.43;;
63902;SDS011;50072;50.678;13.938;2023-02-28T17:16:35;22.65;;;10.98;;
63902;SDS011;50072;50.678;13.938;2023-02-28T17:19:05;24.33;;;11.10;;
63902;SDS011;50072;50.678;13.938;2023-02-28T17:21:40;25.90;;;12.18;;
63902;SDS011;50072;50.678;13.938;2023-02-28T17:29:35;35.25;;;14.00;;
63902;SDS011;50072;50.678;13.938;2023-02-28T17:32:04;33.30;;;14.73;;
63902;SDS011;50072;50.678;13.938;2023-02-28T17:34:34;54.05;;;20.13;;
63902;SDS011;50072;50.678;13.938;2023-02-28T17:37:00;54.28;;;20.45;;
63902;SDS011;50072;50.678;13.938;2023-02-28T17:39:27;49.15;;;18.67;;
63902;SDS011;50072;50.678;13.938;2023-02-28T17:41:59;46.63;;;18.75;;
63902;SDS011;50072;50.678;13.938;2023-02-28T17:44:35;50.75;;;20.80;;
63902;SDS011;50072;50.678;13.938;2023-02-28T17:49:34;163.30;;;49.42;;
63902;SDS011;50072;50.678;13.938;2023-02-28T17:54:36;38.85;;;16.45;;
63902;SDS011;50072;50.678;13.938;2023-02-28T17:59:35;37.40;;;15.52;;
63902;SDS011;50072;50.678;13.938;2023-02-28T18:02:05;42.25;;;17.65;;
63902;SDS011;50072;50.678;13.938;2023-02-28T18:04:32;26.27;;;12.13;;
63902;SDS011;50072;50.678;13.938;2023-02-28T18:07:00;30.73;;;11.93;;
63902;SDS011;50072;50.678;13.938;2023-02-28T18:12:01;22.27;;;9.93;;
63902;SDS011;50072;50.678;13.938;2023-02-28T18:14:32;22.65;;;10.38;;
63902;SDS011;50072;50.678;13.938;2023-02-28T18:19:31;29.00;;;11.60;;
63902;SDS011;50072;50.678;13.938;2023-02-28T18:21:57;27.00;;;11.50;;
63902;SDS011;50072;50.678;13.938;2023-02-28T18:24:34;24.42;;;11.10;;
63902;SDS011;50072;50.678;13.938;2023-02-28T18:27:02;26.40;;;11.15;;
63902;SDS011;50072;50.678;13.938;2023-02-28T18:29:34;26.20;;;11.43;;
63902;SDS011;50072;50.678;13.938;2023-02-28T18:32:05;29.00;;;10.63;;
63902;SDS011;50072;50.678;13.938;2023-02-28T18:34:32;29.27;;;13.57;;
63902;SDS011;50072;50.678;13.938;2023-02-28T18:37:05;29.90;;;13.73;;
63902;SDS011;50072;50.678;13.938;2023-02-28T18:39:35;33.63;;;14.43;;
63902;SDS011;50072;50.678;13.938;2023-02-28T18:42:02;31.17;;;14.25;;
63902;SDS011;50072;50.678;13.938;2023-02-28T18:44:37;29.45;;;12.57;;
63902;SDS011;50072;50.678;13.938;2023-02-28T18:47:05;26.63;;;12.35;;
63902;SDS011;50072;50.678;13.938;2023-02-28T18:49:34;31.17;;;13.35;;
63902;SDS011;50072;50.678;13.938;2023-02-28T18:52:04;29.38;;;13.82;;
63902;SDS011;50072;50.678;13.938;2023-02-28T18:57:03;32.00;;;12.15;;
63902;SDS011;50072;50.678;13.938;2023-02-28T18:59:31;26.25;;;11.73;;
63902;SDS011;50072;50.678;13.938;2023-02-28T19:02:05;29.73;;;12.82;;
63902;SDS011;50072;50.678;13.938;2023-02-28T19:04:33;26.42;;;11.85;;
63902;SDS011;50072;50.678;13.938;2023-02-28T19:09:36;53.28;;;16.60;;
63902;SDS011;50072;50.678;13.938;2023-02-28T19:12:03;159.00;;;33.60;;
63902;SDS011;50072;50.678;13.938;2023-02-28T19:14:35;124.28;;;30.08;;
63902;SDS011;50072;50.678;13.938;2023-02-28T19:17:05;120.93;;;28.15;;
63902;SDS011;50072;50.678;13.938;2023-02-28T19:19:36;107.82;;;25.83;;
63902;SDS011;50072;50.678;13.938;2023-02-28T19:22:05;71.10;;;20.80;;
63902;SDS011;50072;50.678;13.938;2023-02-28T19:24:36;66.20;;;19.85;;
63902;SDS011;50072;50.678;13.938;2023-02-28T19:27:04;57.92;;;18.95;;
63902;SDS011;50072;50.678;13.938;2023-02-28T19:34:36;52.00;;;17.27;;
63902;SDS011;50072;50.678;13.938;2023-02-28T19:37:04;62.10;;;22.95;;
63902;SDS011;50072;50.678;13.938;2023-02-28T19:39:38;78.80;;;27.30;;
63902;SDS011;50072;50.678;13.938;2023-02-28T19:42:11;84.95;;;28.95;;